sensor_id;sensor_type;location;lat;lon;timestamp;P1;durP1;ratioP1;P2;durP2;ratioP2
19161;SDS011;9713;48.140;11.530;2022-12-18T00:00:03;42.43;;;17.53;;
19161;SDS011;9713;48.140;11.530;2022-12-18T00:03:48;44.37;;;17.90;;
19161;SDS011;9713;48.140;11.530;2022-12-18T00:07:31;44.70;;;18.57;;
19161;SDS011;9713;48.140;11.530;2022-12-18T00:11:14;49.50;;;18.57;;
19161;SDS011;9713;48.140;11.530;2022-12-18T00:14:57;46.03;;;17.83;;
19161;SDS011;9713;48.140;11.530;2022-12-18T00:18:42;49.17;;;18.23;;
19161;SDS011;9713;48.140;11.530;2022-12-18T00:22:26;44.57;;;17.93;;
19161;SDS011;9713;48.140;11.530;2022-12-18T00:26:10;49.00;;;18.50;;
19161;SDS011;9713;48.140;11.530;2022-12-18T00:29:57;45.63;;;17.83;;
19161;SDS011;9713;48.140;11.530;2022-12-18T00:33:40;51.43;;;18.53;;
19161;SDS011;9713;48.140;11.530;2022-12-18T00:37:24;45.77;;;17.23;;
19161;SDS011;9713;48.140;11.530;2022-12-18T00:41:07;48.27;;;17.80;;
19161;SDS011;9713;48.140;11.530;2022-12-18T00:44:50;41.27;;;16.30;;
19161;SDS011;9713;48.140;11.530;2022-12-18T00:48:32;46.47;;;17.30;;
19161;SDS011;9713;48.140;11.530;2022-12-18T00:52:16;50.20;;;18.27;;
19161;SDS011;9713;48.140;11.530;2022-12-18T00:55:59;51.50;;;18.63;;
19161;SDS011;9713;48.140;11.530;2022-12-18T00:59:41;48.03;;;18.20;;
19161;SDS011;9713;48.140;11.530;2022-12-18T01:03:24;46.53;;;17.63;;
19161;SDS011;9713;48.140;11.530;2022-12-18T01:07:07;48.03;;;17.53;;
19161;SDS011;9713;48.140;11.530;2022-12-18T01:10:51;46.47;;;17.37;;
19161;SDS011;9713;48.140;11.530;2022-12-18T01:14:34;47.33;;;17.27;;
19161;SDS011;9713;48.140;11.530;2022-12-18T01:18:16;44.87;;;16.60;;
19161;SDS011;9713;48.140;11.530;2022-12-18T01:21:59;44.47;;;16.07;;
19161;SDS011;9713;48.140;11.530;2022-12-18T01:25:42;40.57;;;15.43;;
19161;SDS011;9713;48.140;11.530;2022-12-18T01:29:26;47.77;;;17.40;;
19161;SDS011;9713;48.140;11.530;2022-12-18T01:33:09;45.37;;;16.07;;
19161;SDS011;9713;48.140;11.530;2022-12-18T01:36:52;43.60;;;16.07;;
19161;SDS011;9713;48.140;11.530;2022-12-18T01:40:34;43.57;;;16.10;;
19161;SDS011;9713;48.140;11.530;2022-12-18T01:48:39;40.63;;;15.47;;
19161;SDS011;9713;48.140;11.530;2022-12-18T01:52:23;43.07;;;16.73;;
19161;SDS011;9713;48.140;11.530;2022-12-18T01:56:07;45.57;;;16.63;;
19161;SDS011;9713;48.140;11.530;2022-12-18T01:59:50;39.93;;;14.77;;
19161;SDS011;9713;48.140;11.530;2022-12-18T02:03:34;42.93;;;16.07;;
19161;SDS011;9713;48.140;11.530;2022-12-18T02:07:22;40.73;;;16.40;;
19161;SDS011;9713;48.140;11.530;2022-12-18T02:11:10;45.47;;;17.40;;
19161;SDS011;9713;48.140;11.530;2022-12-18T02:14:55;44.10;;;16.50;;
19161;SDS011;9713;48.140;11.530;2022-12-18T02:18:43;49.13;;;18.27;;
19161;SDS011;9713;48.140;11.530;2022-12-18T02:22:33;49.10;;;18.13;;
19161;SDS011;9713;48.140;11.530;2022-12-18T02:26:21;50.73;;;18.77;;
19161;SDS011;9713;48.140;11.530;2022-12-18T02:30:07;45.83;;;18.17;;
19161;SDS011;9713;48.140;11.530;2022-12-18T02:33:51;51.37;;;18.23;;
19161;SDS011;9713;48.140;11.530;2022-12-18T02:37:38;56.57;;;19.63;;
19161;SDS011;9713;48.140;11.530;2022-12-18T02:41:23;52.73;;;19.53;;
19161;SDS011;9713;48.140;11.530;2022-12-18T02:45:06;51.97;;;19.37;;
19161;SDS011;9713;48.140;11.530;2022-12-18T02:48:49;58.60;;;19.30;;
19161;SDS011;9713;48.140;11.530;2022-12-18T02:52:35;53.53;;;18.90;;
19161;SDS011;9713;48.140;11.530;2022-12-18T02:56:23;54.43;;;18.97;;
19161;SDS011;9713;48.140;11.530;2022-12-18T03:00:10;53.47;;;18.53;;
19161;SDS011;9713;48.140;11.530;2022-12-18T03:03:55;56.67;;;19.83;;
19161;SDS011;9713;48.140;11.530;2022-12-18T03:07:41;54.43;;;18.97;;
19161;SDS011;9713;48.140;11.530;2022-12-18T03:11:27;53.00;;;18.77;;
19161;SDS011;9713;48.140;11.530;2022-12-18T03:15:29;52.47;;;18.73;;
19161;SDS011;9713;48.140;11.530;2022-12-18T03:19:15;55.17;;;18.87;;
19161;SDS011;9713;48.140;11.530;2022-12-18T03:22:59;54.03;;;18.40;;
19161;SDS011;9713;48.140;11.530;2022-12-18T03:26:47;51.37;;;18.03;;
19161;SDS011;9713;48.140;11.530;2022-12-18T03:30:34;59.00;;;19.53;;
19161;SDS011;9713;48.140;11.530;2022-12-18T03:34:21;54.80;;;18.33;;
19161;SDS011;9713;48.140;11.530;2022-12-18T03:38:06;53.93;;;18.83;;
19161;SDS011;9713;48.140;11.530;2022-12-18T03:41:51;55.50;;;18.80;;
19161;SDS011;9713;48.140;11.530;2022-12-18T03:45:41;52.40;;;19.40;;
19161;SDS011;9713;48.140;11.530;2022-12-18T03:49:27;54.30;;;19.67;;
19161;SDS011;9713;48.140;11.530;2022-12-18T03:53:18;51.73;;;19.43;;
19161;SDS011;9713;48.140;11.530;2022-12-18T03:57:09;51.83;;;18.83;;
19161;SDS011;9713;48.140;11.530;2022-12-18T04:00:56;53.03;;;18.83;;
19161;SDS011;9713;48.140;11.530;2022-12-18T04:04:41;54.73;;;19.33;;
19161;SDS011;9713;48.140;11.530;2022-12-18T04:08:27;53.37;;;18.37;;
19161;SDS011;9713;48.140;11.530;2022-12-18T04:12:11;52.60;;;19.67;;
19161;SDS011;9713;48.140;11.530;2022-12-18T04:15:54;56.67;;;20.17;;
19161;SDS011;9713;48.140;11.530;2022-12-18T04:19:37;55.23;;;19.13;;
19161;SDS011;9713;48.140;11.530;2022-12-18T04:23:22;55.27;;;19.17;;
19161;SDS011;9713;48.140;11.530;2022-12-18T04:27:05;56.93;;;20.03;;
19161;SDS011;9713;48.140;11.530;2022-12-18T04:30:49;55.87;;;19.43;;
19161;SDS011;9713;48.140;11.530;2022-12-18T04:34:32;51.77;;;19.33;;
19161;SDS011;9713;48.140;11.530;2022-12-18T04:38:15;56.00;;;19.57;;
19161;SDS011;9713;48.140;11.530;2022-12-18T04:41:57;56.67;;;20.20;;
19161;SDS011;9713;48.140;11.530;2022-12-18T04:45:43;50.23;;;18.33;;
19161;SDS011;9713;48.140;11.530;2022-12-18T04:49:27;54.87;;;19.40;;
19161;SDS011;9713;48.140;11.530;2022-12-18T04:53:10;49.70;;;18.60;;
19161;SDS011;9713;48.140;11.530;2022-12-18T04:56:52;51.33;;;18.43;;
19161;SDS011;9713;48.140;11.530;2022-12-18T05:00:35;51.80;;;19.43;;
19161;SDS011;9713;48.140;11.530;2022-12-18T05:04:18;49.27;;;17.93;;
19161;SDS011;9713;48.140;11.530;2022-12-18T05:08:02;51.97;;;19.50;;
19161;SDS011;9713;48.140;11.530;2022-12-18T05:11:45;48.87;;;18.07;;
19161;SDS011;9713;48.140;11.530;2022-12-18T05:15:28;48.77;;;17.53;;
19161;SDS011;9713;48.140;11.530;2022-12-18T05:19:11;41.97;;;16.97;;
19161;SDS011;9713;48.140;11.530;2022-12-18T05:22:54;45.63;;;16.90;;
19161;SDS011;9713;48.140;11.530;2022-12-18T05:26:38;46.07;;;17.23;;
19161;SDS011;9713;48.140;11.530;2022-12-18T05:30:21;40.03;;;16.57;;
19161;SDS011;9713;48.140;11.530;2022-12-18T05:34:04;46.77;;;17.07;;
19161;SDS011;9713;48.140;11.530;2022-12-18T05:37:47;37.93;;;16.13;;
19161;SDS011;9713;48.140;11.530;2022-12-18T05:41:30;48.00;;;18.63;;
19161;SDS011;9713;48.140;11.530;2022-12-18T05:45:14;48.40;;;17.37;;
19161;SDS011;9713;48.140;11.530;2022-12-18T05:48:58;48.37;;;17.33;;
19161;SDS011;9713;48.140;11.530;2022-12-18T05:52:41;45.70;;;17.43;;
19161;SDS011;9713;48.140;11.530;2022-12-18T05:56:24;47.17;;;17.70;;
19161;SDS011;9713;48.140;11.530;2022-12-18T06:00:07;46.97;;;18.17;;
19161;SDS011;9713;48.140;11.530;2022-12-18T06:03:52;43.00;;;17.03;;
19161;SDS011;9713;48.140;11.530;2022-12-18T06:07:36;47.10;;;17.73;;
19161;SDS011;9713;48.140;11.530;2022-12-18T06:11:19;45.67;;;16.40;;
19161;SDS011;9713;48.140;11.530;2022-12-18T06:15:03;38.77;;;16.43;;
19161;SDS011;9713;48.140;11.530;2022-12-18T06:18:46;45.33;;;16.73;;
19161;SDS011;9713;48.140;11.530;2022-12-18T06:22:31;48.33;;;17.33;;
19161;SDS011;9713;48.140;11.530;2022-12-18T06:26:14;44.80;;;18.00;;
19161;SDS011;9713;48.140;11.530;2022-12-18T06:29:57;38.57;;;14.87;;
19161;SDS011;9713;48.140;11.530;2022-12-18T06:33:39;42.70;;;16.57;;
19161;SDS011;9713;48.140;11.530;2022-12-18T06:37:23;43.43;;;16.97;;
19161;SDS011;9713;48.140;11.530;2022-12-18T06:41:08;42.30;;;16.80;;
19161;SDS011;9713;48.140;11.530;2022-12-18T06:44:52;44.10;;;17.10;;
19161;SDS011;9713;48.140;11.530;2022-12-18T06:48:35;42.23;;;16.47;;
19161;SDS011;9713;48.140;11.530;2022-12-18T06:52:18;47.07;;;17.40;;
19161;SDS011;9713;48.140;11.530;2022-12-18T06:56:00;47.03;;;17.07;;
19161;SDS011;9713;48.140;11.530;2022-12-18T06:59:51;43.70;;;17.13;;
19161;SDS011;9713;48.140;11.530;2022-12-18T07:03:34;38.73;;;15.80;;
19161;SDS011;9713;48.140;11.530;2022-12-18T07:07:17;43.67;;;16.37;;
19161;SDS011;9713;48.140;11.530;2022-12-18T07:11:02;40.90;;;15.93;;
19161;SDS011;9713;48.140;11.530;2022-12-18T07:14:45;47.00;;;17.07;;
19161;SDS011;9713;48.140;11.530;2022-12-18T07:18:29;42.40;;;15.67;;
19161;SDS011;9713;48.140;11.530;2022-12-18T07:22:12;45.63;;;15.83;;
19161;SDS011;9713;48.140;11.530;2022-12-18T07:25:55;43.90;;;16.70;;
19161;SDS011;9713;48.140;11.530;2022-12-18T07:29:41;45.77;;;17.63;;
19161;SDS011;9713;48.140;11.530;2022-12-18T07:33:24;44.83;;;16.97;;
19161;SDS011;9713;48.140;11.530;2022-12-18T07:37:08;45.37;;;16.57;;
19161;SDS011;9713;48.140;11.530;2022-12-18T07:40:59;42.93;;;16.53;;
19161;SDS011;9713;48.140;11.530;2022-12-18T07:44:42;45.93;;;16.87;;
19161;SDS011;9713;48.140;11.530;2022-12-18T07:48:25;38.70;;;15.17;;
19161;SDS011;9713;48.140;11.530;2022-12-18T07:52:09;54.67;;;20.30;;
19161;SDS011;9713;48.140;11.530;2022-12-18T07:55:54;51.97;;;17.90;;
19161;SDS011;9713;48.140;11.530;2022-12-18T07:59:58;41.73;;;16.63;;
19161;SDS011;9713;48.140;11.530;2022-12-18T08:03:41;41.17;;;15.53;;
19161;SDS011;9713;48.140;11.530;2022-12-18T08:07:25;41.13;;;16.10;;
19161;SDS011;9713;48.140;11.530;2022-12-18T08:11:08;47.50;;;17.23;;
19161;SDS011;9713;48.140;11.530;2022-12-18T08:14:50;48.03;;;16.33;;
19161;SDS011;9713;48.140;11.530;2022-12-18T08:18:33;45.53;;;16.47;;
19161;SDS011;9713;48.140;11.530;2022-12-18T08:22:16;43.67;;;16.87;;
19161;SDS011;9713;48.140;11.530;2022-12-18T08:26:00;46.13;;;16.87;;
19161;SDS011;9713;48.140;11.530;2022-12-18T08:29:43;44.27;;;17.67;;
19161;SDS011;9713;48.140;11.530;2022-12-18T08:33:26;40.53;;;16.40;;
19161;SDS011;9713;48.140;11.530;2022-12-18T08:37:08;40.33;;;15.73;;
19161;SDS011;9713;48.140;11.530;2022-12-18T08:40:54;39.30;;;16.10;;
19161;SDS011;9713;48.140;11.530;2022-12-18T08:44:41;43.73;;;16.00;;
19161;SDS011;9713;48.140;11.530;2022-12-18T08:48:24;39.90;;;14.77;;
19161;SDS011;9713;48.140;11.530;2022-12-18T08:52:07;44.33;;;16.60;;
19161;SDS011;9713;48.140;11.530;2022-12-18T08:55:50;41.13;;;15.70;;
19161;SDS011;9713;48.140;11.530;2022-12-18T08:59:32;42.97;;;16.37;;
19161;SDS011;9713;48.140;11.530;2022-12-18T09:03:17;40.23;;;15.60;;
19161;SDS011;9713;48.140;11.530;2022-12-18T09:07:01;39.90;;;16.30;;
19161;SDS011;9713;48.140;11.530;2022-12-18T09:10:43;47.67;;;15.07;;
19161;SDS011;9713;48.140;11.530;2022-12-18T09:14:29;42.03;;;15.80;;
19161;SDS011;9713;48.140;11.530;2022-12-18T09:18:13;45.07;;;16.67;;
19161;SDS011;9713;48.140;11.530;2022-12-18T09:21:57;38.60;;;15.40;;
19161;SDS011;9713;48.140;11.530;2022-12-18T09:25:40;37.50;;;15.50;;
19161;SDS011;9713;48.140;11.530;2022-12-18T09:29:22;39.00;;;16.10;;
19161;SDS011;9713;48.140;11.530;2022-12-18T09:33:05;42.07;;;17.40;;
19161;SDS011;9713;48.140;11.530;2022-12-18T09:36:48;43.63;;;16.03;;
19161;SDS011;9713;48.140;11.530;2022-12-18T09:40:39;38.00;;;15.57;;
19161;SDS011;9713;48.140;11.530;2022-12-18T09:44:24;38.30;;;15.37;;
19161;SDS011;9713;48.140;11.530;2022-12-18T09:48:09;38.23;;;15.03;;
19161;SDS011;9713;48.140;11.530;2022-12-18T09:51:54;40.67;;;15.83;;
19161;SDS011;9713;48.140;11.530;2022-12-18T09:55:44;41.47;;;16.40;;
19161;SDS011;9713;48.140;11.530;2022-12-18T09:59:30;44.43;;;16.70;;
19161;SDS011;9713;48.140;11.530;2022-12-18T10:03:15;43.50;;;16.77;;
19161;SDS011;9713;48.140;11.530;2022-12-18T10:06:59;40.27;;;14.57;;
19161;SDS011;9713;48.140;11.530;2022-12-18T10:10:51;41.80;;;15.77;;
19161;SDS011;9713;48.140;11.530;2022-12-18T10:14:36;35.67;;;14.70;;
19161;SDS011;9713;48.140;11.530;2022-12-18T10:18:26;35.10;;;14.23;;
19161;SDS011;9713;48.140;11.530;2022-12-18T10:22:22;34.67;;;14.77;;
19161;SDS011;9713;48.140;11.530;2022-12-18T10:26:11;36.07;;;14.83;;
19161;SDS011;9713;48.140;11.530;2022-12-18T10:29:55;41.17;;;15.43;;
19161;SDS011;9713;48.140;11.530;2022-12-18T10:33:38;41.60;;;15.87;;
19161;SDS011;9713;48.140;11.530;2022-12-18T10:37:22;36.73;;;14.57;;
19161;SDS011;9713;48.140;11.530;2022-12-18T10:41:22;35.73;;;14.27;;
19161;SDS011;9713;48.140;11.530;2022-12-18T10:45:10;41.93;;;14.70;;
19161;SDS011;9713;48.140;11.530;2022-12-18T10:48:57;43.17;;;15.13;;
19161;SDS011;9713;48.140;11.530;2022-12-18T10:52:40;38.30;;;15.63;;
19161;SDS011;9713;48.140;11.530;2022-12-18T10:56:30;41.00;;;15.00;;
19161;SDS011;9713;48.140;11.530;2022-12-18T11:00:23;37.13;;;14.60;;
19161;SDS011;9713;48.140;11.530;2022-12-18T11:04:09;37.30;;;14.60;;
19161;SDS011;9713;48.140;11.530;2022-12-18T11:07:52;39.83;;;16.03;;
19161;SDS011;9713;48.140;11.530;2022-12-18T11:11:37;64.03;;;20.87;;
19161;SDS011;9713;48.140;11.530;2022-12-18T11:15:20;46.63;;;17.40;;
19161;SDS011;9713;48.140;11.530;2022-12-18T11:19:11;42.23;;;15.73;;
19161;SDS011;9713;48.140;11.530;2022-12-18T11:23:03;39.53;;;15.60;;
19161;SDS011;9713;48.140;11.530;2022-12-18T11:26:48;39.47;;;15.70;;
19161;SDS011;9713;48.140;11.530;2022-12-18T11:30:39;37.67;;;14.97;;
19161;SDS011;9713;48.140;11.530;2022-12-18T11:34:23;34.23;;;14.60;;
19161;SDS011;9713;48.140;11.530;2022-12-18T11:38:12;35.77;;;14.80;;
19161;SDS011;9713;48.140;11.530;2022-12-18T11:42:04;38.17;;;15.10;;
19161;SDS011;9713;48.140;11.530;2022-12-18T11:45:51;41.97;;;15.70;;
19161;SDS011;9713;48.140;11.530;2022-12-18T11:49:35;38.47;;;15.70;;
19161;SDS011;9713;48.140;11.530;2022-12-18T11:53:20;37.73;;;14.43;;
19161;SDS011;9713;48.140;11.530;2022-12-18T11:57:06;33.07;;;13.53;;
19161;SDS011;9713;48.140;11.530;2022-12-18T12:00:53;38.90;;;15.77;;
19161;SDS011;9713;48.140;11.530;2022-12-18T12:04:45;36.13;;;15.13;;
19161;SDS011;9713;48.140;11.530;2022-12-18T12:08:34;34.63;;;14.60;;
19161;SDS011;9713;48.140;11.530;2022-12-18T12:12:27;34.50;;;14.10;;
19161;SDS011;9713;48.140;11.530;2022-12-18T12:16:29;34.23;;;14.67;;
19161;SDS011;9713;48.140;11.530;2022-12-18T12:20:16;37.33;;;14.37;;
19161;SDS011;9713;48.140;11.530;2022-12-18T12:24:04;36.80;;;14.33;;
19161;SDS011;9713;48.140;11.530;2022-12-18T12:28:00;35.13;;;14.80;;
19161;SDS011;9713;48.140;11.530;2022-12-18T12:31:54;35.63;;;14.53;;
19161;SDS011;9713;48.140;11.530;2022-12-18T12:35:44;40.47;;;16.17;;
19161;SDS011;9713;48.140;11.530;2022-12-18T12:39:30;37.00;;;15.33;;
19161;SDS011;9713;48.140;11.530;2022-12-18T12:43:22;38.30;;;14.90;;
19161;SDS011;9713;48.140;11.530;2022-12-18T12:47:11;36.03;;;14.53;;
19161;SDS011;9713;48.140;11.530;2022-12-18T12:50:57;33.13;;;14.17;;
19161;SDS011;9713;48.140;11.530;2022-12-18T12:54:40;36.90;;;14.37;;
19161;SDS011;9713;48.140;11.530;2022-12-18T12:58:28;34.80;;;14.87;;
19161;SDS011;9713;48.140;11.530;2022-12-18T13:02:15;32.00;;;14.23;;
19161;SDS011;9713;48.140;11.530;2022-12-18T13:06:02;37.27;;;15.10;;
19161;SDS011;9713;48.140;11.530;2022-12-18T13:13:59;36.53;;;15.13;;
19161;SDS011;9713;48.140;11.530;2022-12-18T13:17:42;37.57;;;14.97;;
19161;SDS011;9713;48.140;11.530;2022-12-18T13:21:27;35.70;;;14.27;;
19161;SDS011;9713;48.140;11.530;2022-12-18T13:29:42;35.43;;;14.03;;
19161;SDS011;9713;48.140;11.530;2022-12-18T13:33:38;34.10;;;13.87;;
19161;SDS011;9713;48.140;11.530;2022-12-18T13:37:43;33.97;;;14.20;;
19161;SDS011;9713;48.140;11.530;2022-12-18T13:41:34;32.97;;;13.53;;
19161;SDS011;9713;48.140;11.530;2022-12-18T13:45:37;35.53;;;13.23;;
19161;SDS011;9713;48.140;11.530;2022-12-18T13:49:25;34.73;;;13.90;;
19161;SDS011;9713;48.140;11.530;2022-12-18T13:53:13;31.30;;;13.03;;
19161;SDS011;9713;48.140;11.530;2022-12-18T13:57:03;32.57;;;13.67;;
19161;SDS011;9713;48.140;11.530;2022-12-18T14:00:48;31.93;;;13.07;;
19161;SDS011;9713;48.140;11.530;2022-12-18T14:04:33;31.63;;;13.17;;
19161;SDS011;9713;48.140;11.530;2022-12-18T14:08:17;37.60;;;14.60;;
19161;SDS011;9713;48.140;11.530;2022-12-18T14:12:01;34.40;;;13.80;;
19161;SDS011;9713;48.140;11.530;2022-12-18T14:16:06;33.03;;;13.40;;
19161;SDS011;9713;48.140;11.530;2022-12-18T14:19:49;36.50;;;14.47;;
19161;SDS011;9713;48.140;11.530;2022-12-18T14:23:33;32.90;;;13.17;;
19161;SDS011;9713;48.140;11.530;2022-12-18T14:27:22;34.63;;;13.73;;
19161;SDS011;9713;48.140;11.530;2022-12-18T14:31:16;33.57;;;13.93;;
19161;SDS011;9713;48.140;11.530;2022-12-18T14:35:12;36.60;;;13.93;;
19161;SDS011;9713;48.140;11.530;2022-12-18T14:38:55;36.73;;;14.43;;
19161;SDS011;9713;48.140;11.530;2022-12-18T14:42:38;40.37;;;15.27;;
19161;SDS011;9713;48.140;11.530;2022-12-18T14:46:30;37.57;;;15.37;;
19161;SDS011;9713;48.140;11.530;2022-12-18T14:50:17;37.87;;;14.80;;
19161;SDS011;9713;48.140;11.530;2022-12-18T14:54:01;38.23;;;14.03;;
19161;SDS011;9713;48.140;11.530;2022-12-18T14:57:44;35.30;;;14.47;;
19161;SDS011;9713;48.140;11.530;2022-12-18T15:01:30;37.40;;;14.80;;
19161;SDS011;9713;48.140;11.530;2022-12-18T15:05:17;36.23;;;14.27;;
19161;SDS011;9713;48.140;11.530;2022-12-18T15:09:20;38.83;;;14.33;;
19161;SDS011;9713;48.140;11.530;2022-12-18T15:13:06;37.10;;;14.87;;
19161;SDS011;9713;48.140;11.530;2022-12-18T15:16:53;40.80;;;15.37;;
19161;SDS011;9713;48.140;11.530;2022-12-18T15:20:38;42.07;;;16.23;;
19161;SDS011;9713;48.140;11.530;2022-12-18T15:24:24;37.97;;;15.13;;
19161;SDS011;9713;48.140;11.530;2022-12-18T15:28:17;43.23;;;16.47;;
19161;SDS011;9713;48.140;11.530;2022-12-18T15:32:04;41.30;;;15.83;;
19161;SDS011;9713;48.140;11.530;2022-12-18T15:35:48;39.90;;;16.13;;
19161;SDS011;9713;48.140;11.530;2022-12-18T15:39:38;35.10;;;14.67;;
19161;SDS011;9713;48.140;11.530;2022-12-18T15:43:21;41.20;;;15.87;;
19161;SDS011;9713;48.140;11.530;2022-12-18T15:47:17;37.47;;;15.73;;
19161;SDS011;9713;48.140;11.530;2022-12-18T15:51:00;35.07;;;14.37;;
19161;SDS011;9713;48.140;11.530;2022-12-18T15:54:43;40.30;;;15.33;;
19161;SDS011;9713;48.140;11.530;2022-12-18T15:58:43;36.90;;;14.07;;
19161;SDS011;9713;48.140;11.530;2022-12-18T16:02:28;38.70;;;14.97;;
19161;SDS011;9713;48.140;11.530;2022-12-18T16:06:11;43.13;;;16.07;;
19161;SDS011;9713;48.140;11.530;2022-12-18T16:09:53;38.37;;;15.10;;
19161;SDS011;9713;48.140;11.530;2022-12-18T16:13:39;42.23;;;15.20;;
19161;SDS011;9713;48.140;11.530;2022-12-18T16:17:22;45.83;;;16.63;;
19161;SDS011;9713;48.140;11.530;2022-12-18T16:21:07;44.23;;;15.97;;
19161;SDS011;9713;48.140;11.530;2022-12-18T16:24:50;44.47;;;16.37;;
19161;SDS011;9713;48.140;11.530;2022-12-18T16:28:34;45.10;;;16.87;;
19161;SDS011;9713;48.140;11.530;2022-12-18T16:32:18;48.93;;;17.97;;
19161;SDS011;9713;48.140;11.530;2022-12-18T16:36:02;47.17;;;18.07;;
19161;SDS011;9713;48.140;11.530;2022-12-18T16:39:46;44.37;;;16.60;;
19161;SDS011;9713;48.140;11.530;2022-12-18T16:43:28;44.13;;;17.77;;
19161;SDS011;9713;48.140;11.530;2022-12-18T16:47:11;41.63;;;16.87;;
19161;SDS011;9713;48.140;11.530;2022-12-18T16:50:59;47.73;;;17.77;;
19161;SDS011;9713;48.140;11.530;2022-12-18T16:54:42;53.67;;;18.63;;
19161;SDS011;9713;48.140;11.530;2022-12-18T16:58:26;48.67;;;18.43;;
19161;SDS011;9713;48.140;11.530;2022-12-18T17:02:10;46.97;;;17.63;;
19161;SDS011;9713;48.140;11.530;2022-12-18T17:06:01;41.27;;;15.90;;
19161;SDS011;9713;48.140;11.530;2022-12-18T17:09:44;44.93;;;18.00;;
19161;SDS011;9713;48.140;11.530;2022-12-18T17:13:28;46.27;;;17.77;;
19161;SDS011;9713;48.140;11.530;2022-12-18T17:17:10;44.67;;;17.27;;
19161;SDS011;9713;48.140;11.530;2022-12-18T17:21:03;44.13;;;17.07;;
19161;SDS011;9713;48.140;11.530;2022-12-18T17:24:49;51.10;;;17.63;;
19161;SDS011;9713;48.140;11.530;2022-12-18T17:28:33;44.67;;;17.27;;
19161;SDS011;9713;48.140;11.530;2022-12-18T17:32:16;45.77;;;18.10;;
19161;SDS011;9713;48.140;11.530;2022-12-18T17:35:59;45.80;;;18.23;;
19161;SDS011;9713;48.140;11.530;2022-12-18T17:39:41;46.03;;;18.23;;
19161;SDS011;9713;48.140;11.530;2022-12-18T17:43:24;46.50;;;17.63;;
19161;SDS011;9713;48.140;11.530;2022-12-18T17:47:08;48.53;;;18.67;;
19161;SDS011;9713;48.140;11.530;2022-12-18T17:50:52;48.43;;;19.53;;
19161;SDS011;9713;48.140;11.530;2022-12-18T17:54:35;52.27;;;19.13;;
19161;SDS011;9713;48.140;11.530;2022-12-18T17:58:20;49.53;;;18.23;;
19161;SDS011;9713;48.140;11.530;2022-12-18T18:02:02;47.87;;;18.57;;
19161;SDS011;9713;48.140;11.530;2022-12-18T18:05:48;46.17;;;17.73;;
19161;SDS011;9713;48.140;11.530;2022-12-18T18:09:30;50.10;;;18.30;;
19161;SDS011;9713;48.140;11.530;2022-12-18T18:13:15;48.17;;;19.00;;
19161;SDS011;9713;48.140;11.530;2022-12-18T18:17:27;51.30;;;18.50;;
19161;SDS011;9713;48.140;11.530;2022-12-18T18:21:11;49.90;;;18.50;;
19161;SDS011;9713;48.140;11.530;2022-12-18T18:24:55;48.90;;;18.33;;
19161;SDS011;9713;48.140;11.530;2022-12-18T18:28:38;49.37;;;19.00;;
19161;SDS011;9713;48.140;11.530;2022-12-18T18:32:21;49.33;;;18.40;;
19161;SDS011;9713;48.140;11.530;2022-12-18T18:36:04;51.00;;;18.87;;
19161;SDS011;9713;48.140;11.530;2022-12-18T18:39:52;47.00;;;18.17;;
19161;SDS011;9713;48.140;11.530;2022-12-18T18:43:39;47.27;;;17.83;;
19161;SDS011;9713;48.140;11.530;2022-12-18T18:47:23;53.17;;;19.50;;
19161;SDS011;9713;48.140;11.530;2022-12-18T18:51:07;50.43;;;18.90;;
19161;SDS011;9713;48.140;11.530;2022-12-18T18:54:54;55.13;;;19.33;;
19161;SDS011;9713;48.140;11.530;2022-12-18T18:58:53;52.87;;;18.73;;
19161;SDS011;9713;48.140;11.530;2022-12-18T19:02:36;50.97;;;18.70;;
19161;SDS011;9713;48.140;11.530;2022-12-18T19:06:20;54.57;;;20.23;;
19161;SDS011;9713;48.140;11.530;2022-12-18T19:10:06;61.67;;;21.57;;
19161;SDS011;9713;48.140;11.530;2022-12-18T19:13:50;49.07;;;18.40;;
19161;SDS011;9713;48.140;11.530;2022-12-18T19:17:33;58.27;;;21.27;;
19161;SDS011;9713;48.140;11.530;2022-12-18T19:21:18;51.33;;;19.33;;
19161;SDS011;9713;48.140;11.530;2022-12-18T19:25:00;49.07;;;19.23;;
19161;SDS011;9713;48.140;11.530;2022-12-18T19:28:48;55.63;;;19.23;;
19161;SDS011;9713;48.140;11.530;2022-12-18T19:32:31;50.23;;;19.33;;
19161;SDS011;9713;48.140;11.530;2022-12-18T19:36:17;50.93;;;19.03;;
19161;SDS011;9713;48.140;11.530;2022-12-18T19:40:01;53.23;;;18.93;;
19161;SDS011;9713;48.140;11.530;2022-12-18T19:43:54;53.83;;;19.37;;
19161;SDS011;9713;48.140;11.530;2022-12-18T19:47:36;49.03;;;18.20;;
19161;SDS011;9713;48.140;11.530;2022-12-18T19:51:20;47.37;;;18.57;;
19161;SDS011;9713;48.140;11.530;2022-12-18T19:55:04;51.20;;;18.50;;
19161;SDS011;9713;48.140;11.530;2022-12-18T19:58:47;63.27;;;20.97;;
19161;SDS011;9713;48.140;11.530;2022-12-18T20:02:31;64.83;;;21.70;;
19161;SDS011;9713;48.140;11.530;2022-12-18T20:06:18;59.57;;;20.57;;
19161;SDS011;9713;48.140;11.530;2022-12-18T20:10:03;54.70;;;19.80;;
19161;SDS011;9713;48.140;11.530;2022-12-18T20:13:49;55.03;;;18.37;;
19161;SDS011;9713;48.140;11.530;2022-12-18T20:17:33;51.33;;;19.93;;
19161;SDS011;9713;48.140;11.530;2022-12-18T20:21:17;48.57;;;18.93;;
19161;SDS011;9713;48.140;11.530;2022-12-18T20:25:00;60.07;;;20.10;;
19161;SDS011;9713;48.140;11.530;2022-12-18T20:28:43;55.23;;;20.07;;
19161;SDS011;9713;48.140;11.530;2022-12-18T20:32:28;61.40;;;21.83;;
19161;SDS011;9713;48.140;11.530;2022-12-18T20:36:19;52.83;;;19.63;;
19161;SDS011;9713;48.140;11.530;2022-12-18T20:40:07;55.60;;;20.80;;
19161;SDS011;9713;48.140;11.530;2022-12-18T20:43:50;52.27;;;19.77;;
19161;SDS011;9713;48.140;11.530;2022-12-18T20:47:36;51.77;;;19.70;;
19161;SDS011;9713;48.140;11.530;2022-12-18T20:51:20;53.50;;;19.43;;
19161;SDS011;9713;48.140;11.530;2022-12-18T20:55:03;60.30;;;20.70;;
19161;SDS011;9713;48.140;11.530;2022-12-18T20:58:47;54.77;;;20.37;;
19161;SDS011;9713;48.140;11.530;2022-12-18T21:02:35;56.50;;;19.70;;
19161;SDS011;9713;48.140;11.530;2022-12-18T21:06:20;60.23;;;22.10;;
19161;SDS011;9713;48.140;11.530;2022-12-18T21:10:03;58.97;;;21.83;;
19161;SDS011;9713;48.140;11.530;2022-12-18T21:13:47;52.97;;;20.27;;
19161;SDS011;9713;48.140;11.530;2022-12-18T21:17:30;61.70;;;21.83;;
19161;SDS011;9713;48.140;11.530;2022-12-18T21:21:21;56.47;;;20.07;;
19161;SDS011;9713;48.140;11.530;2022-12-18T21:25:07;57.10;;;20.10;;
19161;SDS011;9713;48.140;11.530;2022-12-18T21:28:51;54.53;;;19.50;;
19161;SDS011;9713;48.140;11.530;2022-12-18T21:32:35;53.03;;;19.93;;
19161;SDS011;9713;48.140;11.530;2022-12-18T21:36:18;50.57;;;18.60;;
19161;SDS011;9713;48.140;11.530;2022-12-18T21:40:03;56.97;;;20.13;;
19161;SDS011;9713;48.140;11.530;2022-12-18T21:43:46;51.60;;;18.43;;
19161;SDS011;9713;48.140;11.530;2022-12-18T21:47:46;56.97;;;19.03;;
19161;SDS011;9713;48.140;11.530;2022-12-18T21:51:29;49.67;;;19.03;;
19161;SDS011;9713;48.140;11.530;2022-12-18T21:55:13;60.20;;;19.73;;
19161;SDS011;9713;48.140;11.530;2022-12-18T21:58:56;55.17;;;19.03;;
19161;SDS011;9713;48.140;11.530;2022-12-18T22:02:39;53.87;;;19.00;;
19161;SDS011;9713;48.140;11.530;2022-12-18T22:06:22;61.90;;;19.93;;
19161;SDS011;9713;48.140;11.530;2022-12-18T22:10:05;51.60;;;19.57;;